sensor_id;sensor_type;location;lat;lon;timestamp;P1;durP1;ratioP1;P2;durP2;ratioP2
4565;SDS011;2295;51.050;14.608;2023-07-20T00:01:18;9.70;;;4.30;;
4565;SDS011;2295;51.050;14.608;2023-07-20T00:03:46;10.83;;;4.70;;
4565;SDS011;2295;51.050;14.608;2023-07-20T00:06:21;4.20;;;3.80;;
4565;SDS011;2295;51.050;14.608;2023-07-20T00:08:50;5.75;;;4.05;;
4565;SDS011;2295;51.050;14.608;2023-07-20T00:11:18;8.93;;;5.10;;
4565;SDS011;2295;51.050;14.608;2023-07-20T00:13:48;16.02;;;4.65;;
4565;SDS011;2295;51.050;14.608;2023-07-20T00:16:17;10.98;;;4.32;;
4565;SDS011;2295;51.050;14.608;2023-07-20T00:18:45;10.82;;;4.22;;
4565;SDS011;2295;51.050;14.608;2023-07-20T00:21:13;5.70;;;5.10;;
4565;SDS011;2295;51.050;14.608;2023-07-20T00:23:42;8.63;;;5.28;;
4565;SDS011;2295;51.050;14.608;2023-07-20T00:26:10;7.65;;;4.90;;
4565;SDS011;2295;51.050;14.608;2023-07-20T00:28:40;10.13;;;5.25;;
4565;SDS011;2295;51.050;14.608;2023-07-20T00:31:08;11.02;;;5.78;;
4565;SDS011;2295;51.050;14.608;2023-07-20T00:33:36;8.52;;;5.35;;
4565;SDS011;2295;51.050;14.608;2023-07-20T00:36:04;9.60;;;5.95;;
4565;SDS011;2295;51.050;14.608;2023-07-20T00:38:33;15.50;;;6.65;;
4565;SDS011;2295;51.050;14.608;2023-07-20T00:41:01;14.20;;;6.97;;
4565;SDS011;2295;51.050;14.608;2023-07-20T00:43:30;13.75;;;8.75;;
4565;SDS011;2295;51.050;14.608;2023-07-20T00:45:59;17.67;;;9.77;;
4565;SDS011;2295;51.050;14.608;2023-07-20T00:48:29;20.65;;;11.27;;
4565;SDS011;2295;51.050;14.608;2023-07-20T00:50:58;19.43;;;13.17;;
4565;SDS011;2295;51.050;14.608;2023-07-20T00:53:28;25.73;;;12.80;;
4565;SDS011;2295;51.050;14.608;2023-07-20T00:55:56;19.88;;;12.95;;
4565;SDS011;2295;51.050;14.608;2023-07-20T00:58:25;21.00;;;12.80;;
4565;SDS011;2295;51.050;14.608;2023-07-20T01:00:53;25.77;;;13.38;;
4565;SDS011;2295;51.050;14.608;2023-07-20T01:03:23;15.32;;;11.85;;
4565;SDS011;2295;51.050;14.608;2023-07-20T01:05:53;26.30;;;14.93;;
4565;SDS011;2295;51.050;14.608;2023-07-20T01:08:32;20.40;;;14.70;;
4565;SDS011;2295;51.050;14.608;2023-07-20T01:11:09;23.17;;;12.63;;
4565;SDS011;2295;51.050;14.608;2023-07-20T01:13:42;17.13;;;12.23;;
4565;SDS011;2295;51.050;14.608;2023-07-20T01:16:11;26.90;;;13.57;;
4565;SDS011;2295;51.050;14.608;2023-07-20T01:18:41;16.60;;;12.93;;
4565;SDS011;2295;51.050;14.608;2023-07-20T01:21:09;24.07;;;12.67;;
4565;SDS011;2295;51.050;14.608;2023-07-20T01:23:57;30.47;;;13.30;;
4565;SDS011;2295;51.050;14.608;2023-07-20T01:27:00;20.07;;;11.13;;
4565;SDS011;2295;51.050;14.608;2023-07-20T01:29:55;17.93;;;12.60;;
4565;SDS011;2295;51.050;14.608;2023-07-20T01:32:48;25.33;;;11.63;;
4565;SDS011;2295;51.050;14.608;2023-07-20T01:35:18;16.77;;;11.40;;
4565;SDS011;2295;51.050;14.608;2023-07-20T01:37:51;13.23;;;9.20;;
4565;SDS011;2295;51.050;14.608;2023-07-20T01:40:20;14.83;;;9.50;;
4565;SDS011;2295;51.050;14.608;2023-07-20T01:42:51;15.73;;;10.40;;
4565;SDS011;2295;51.050;14.608;2023-07-20T01:45:20;14.97;;;9.57;;
4565;SDS011;2295;51.050;14.608;2023-07-20T01:47:50;15.60;;;10.13;;
4565;SDS011;2295;51.050;14.608;2023-07-20T01:50:18;14.63;;;9.87;;
4565;SDS011;2295;51.050;14.608;2023-07-20T01:52:47;13.10;;;9.60;;
4565;SDS011;2295;51.050;14.608;2023-07-20T01:55:15;14.98;;;9.70;;
4565;SDS011;2295;51.050;14.608;2023-07-20T01:57:43;13.93;;;9.57;;
4565;SDS011;2295;51.050;14.608;2023-07-20T02:00:12;15.57;;;10.50;;
4565;SDS011;2295;51.050;14.608;2023-07-20T02:02:41;15.33;;;9.37;;
4565;SDS011;2295;51.050;14.608;2023-07-20T02:05:11;13.90;;;8.83;;
4565;SDS011;2295;51.050;14.608;2023-07-20T02:07:39;11.00;;;8.17;;
4565;SDS011;2295;51.050;14.608;2023-07-20T02:10:07;14.53;;;8.73;;
4565;SDS011;2295;51.050;14.608;2023-07-20T02:12:36;17.23;;;8.30;;
4565;SDS011;2295;51.050;14.608;2023-07-20T02:15:05;10.83;;;8.63;;
4565;SDS011;2295;51.050;14.608;2023-07-20T02:17:34;11.03;;;8.60;;
4565;SDS011;2295;51.050;14.608;2023-07-20T02:20:04;14.43;;;8.60;;
4565;SDS011;2295;51.050;14.608;2023-07-20T02:22:36;16.13;;;8.60;;
4565;SDS011;2295;51.050;14.608;2023-07-20T02:25:05;19.30;;;9.60;;
4565;SDS011;2295;51.050;14.608;2023-07-20T02:27:34;9.30;;;8.30;;
4565;SDS011;2295;51.050;14.608;2023-07-20T02:30:06;13.93;;;8.60;;
4565;SDS011;2295;51.050;14.608;2023-07-20T02:32:35;10.07;;;7.80;;
4565;SDS011;2295;51.050;14.608;2023-07-20T02:35:04;12.80;;;9.40;;
4565;SDS011;2295;51.050;14.608;2023-07-20T02:37:33;9.63;;;8.63;;
4565;SDS011;2295;51.050;14.608;2023-07-20T02:40:05;11.73;;;9.63;;
4565;SDS011;2295;51.050;14.608;2023-07-20T02:42:35;14.93;;;11.27;;
4565;SDS011;2295;51.050;14.608;2023-07-20T02:45:03;18.73;;;10.13;;
4565;SDS011;2295;51.050;14.608;2023-07-20T02:47:32;10.77;;;8.90;;
4565;SDS011;2295;51.050;14.608;2023-07-20T02:50:01;23.67;;;10.03;;
4565;SDS011;2295;51.050;14.608;2023-07-20T02:52:29;14.45;;;9.95;;
4565;SDS011;2295;51.050;14.608;2023-07-20T02:54:57;12.02;;;9.15;;
4565;SDS011;2295;51.050;14.608;2023-07-20T02:57:27;22.33;;;9.80;;
4565;SDS011;2295;51.050;14.608;2023-07-20T02:59:55;10.60;;;8.60;;
4565;SDS011;2295;51.050;14.608;2023-07-20T03:02:23;27.17;;;9.97;;
4565;SDS011;2295;51.050;14.608;2023-07-20T03:04:52;30.73;;;10.70;;
4565;SDS011;2295;51.050;14.608;2023-07-20T03:07:21;17.53;;;10.10;;
4565;SDS011;2295;51.050;14.608;2023-07-20T03:09:49;14.80;;;9.57;;
4565;SDS011;2295;51.050;14.608;2023-07-20T03:12:17;14.13;;;9.55;;
4565;SDS011;2295;51.050;14.608;2023-07-20T03:14:47;20.55;;;10.13;;
4565;SDS011;2295;51.050;14.608;2023-07-20T03:17:15;12.65;;;10.15;;
4565;SDS011;2295;51.050;14.608;2023-07-20T03:19:44;13.40;;;10.05;;
4565;SDS011;2295;51.050;14.608;2023-07-20T03:22:12;13.50;;;9.27;;
4565;SDS011;2295;51.050;14.608;2023-07-20T03:24:40;15.02;;;10.15;;
4565;SDS011;2295;51.050;14.608;2023-07-20T03:27:08;17.58;;;10.93;;
4565;SDS011;2295;51.050;14.608;2023-07-20T03:29:37;18.92;;;9.73;;
4565;SDS011;2295;51.050;14.608;2023-07-20T03:32:07;12.73;;;8.90;;
4565;SDS011;2295;51.050;14.608;2023-07-20T03:34:35;17.58;;;10.98;;
4565;SDS011;2295;51.050;14.608;2023-07-20T03:37:04;11.40;;;10.20;;
4565;SDS011;2295;51.050;14.608;2023-07-20T03:39:32;11.70;;;9.30;;
4565;SDS011;2295;51.050;14.608;2023-07-20T03:42:01;15.02;;;8.15;;
4565;SDS011;2295;51.050;14.608;2023-07-20T03:44:30;16.75;;;8.27;;
4565;SDS011;2295;51.050;14.608;2023-07-20T03:46:58;14.98;;;9.40;;
4565;SDS011;2295;51.050;14.608;2023-07-20T03:49:28;10.20;;;8.65;;
4565;SDS011;2295;51.050;14.608;2023-07-20T03:51:57;11.60;;;7.05;;
4565;SDS011;2295;51.050;14.608;2023-07-20T03:54:25;10.18;;;8.13;;
4565;SDS011;2295;51.050;14.608;2023-07-20T03:56:53;16.20;;;7.40;;
4565;SDS011;2295;51.050;14.608;2023-07-20T03:59:21;8.93;;;7.43;;
4565;SDS011;2295;51.050;14.608;2023-07-20T04:01:50;10.73;;;7.35;;
4565;SDS011;2295;51.050;14.608;2023-07-20T04:04:18;11.90;;;6.88;;
4565;SDS011;2295;51.050;14.608;2023-07-20T04:06:48;7.97;;;6.78;;
4565;SDS011;2295;51.050;14.608;2023-07-20T04:09:16;7.57;;;6.70;;
4565;SDS011;2295;51.050;14.608;2023-07-20T04:11:44;8.50;;;7.00;;
4565;SDS011;2295;51.050;14.608;2023-07-20T04:14:13;9.10;;;6.80;;
4565;SDS011;2295;51.050;14.608;2023-07-20T04:16:41;12.55;;;7.00;;
4565;SDS011;2295;51.050;14.608;2023-07-20T04:19:09;6.40;;;5.80;;
4565;SDS011;2295;51.050;14.608;2023-07-20T04:21:39;8.57;;;6.65;;
4565;SDS011;2295;51.050;14.608;2023-07-20T04:24:09;8.95;;;5.80;;
4565;SDS011;2295;51.050;14.608;2023-07-20T04:26:38;9.02;;;5.90;;
4565;SDS011;2295;51.050;14.608;2023-07-20T04:29:06;10.63;;;5.70;;
4565;SDS011;2295;51.050;14.608;2023-07-20T04:31:34;8.55;;;5.45;;
4565;SDS011;2295;51.050;14.608;2023-07-20T04:34:03;10.10;;;5.53;;
4565;SDS011;2295;51.050;14.608;2023-07-20T04:36:31;12.07;;;4.53;;
4565;SDS011;2295;51.050;14.608;2023-07-20T04:38:59;15.05;;;6.65;;
4565;SDS011;2295;51.050;14.608;2023-07-20T04:41:29;10.20;;;6.70;;
4565;SDS011;2295;51.050;14.608;2023-07-20T04:43:59;13.43;;;7.72;;
4565;SDS011;2295;51.050;14.608;2023-07-20T04:46:28;8.88;;;6.30;;
4565;SDS011;2295;51.050;14.608;2023-07-20T04:48:56;12.93;;;6.28;;
4565;SDS011;2295;51.050;14.608;2023-07-20T04:51:24;10.05;;;6.60;;
4565;SDS011;2295;51.050;14.608;2023-07-20T04:53:53;8.90;;;6.18;;
4565;SDS011;2295;51.050;14.608;2023-07-20T04:56:21;10.23;;;6.97;;
4565;SDS011;2295;51.050;14.608;2023-07-20T04:58:52;13.20;;;7.50;;
4565;SDS011;2295;51.050;14.608;2023-07-20T05:01:20;13.47;;;7.20;;
4565;SDS011;2295;51.050;14.608;2023-07-20T05:03:48;13.13;;;6.40;;
4565;SDS011;2295;51.050;14.608;2023-07-20T05:06:17;13.03;;;6.80;;
4565;SDS011;2295;51.050;14.608;2023-07-20T05:08:46;14.30;;;7.50;;
4565;SDS011;2295;51.050;14.608;2023-07-20T05:11:14;11.80;;;6.80;;
4565;SDS011;2295;51.050;14.608;2023-07-20T05:13:42;6.70;;;6.03;;
4565;SDS011;2295;51.050;14.608;2023-07-20T05:16:12;6.83;;;5.57;;
4565;SDS011;2295;51.050;14.608;2023-07-20T05:18:40;17.17;;;6.40;;
4565;SDS011;2295;51.050;14.608;2023-07-20T05:21:08;7.50;;;6.37;;
4565;SDS011;2295;51.050;14.608;2023-07-20T05:23:37;7.90;;;5.73;;
4565;SDS011;2295;51.050;14.608;2023-07-20T05:26:05;10.33;;;6.27;;
4565;SDS011;2295;51.050;14.608;2023-07-20T05:28:33;9.87;;;6.13;;
4565;SDS011;2295;51.050;14.608;2023-07-20T05:31:02;11.40;;;6.07;;
4565;SDS011;2295;51.050;14.608;2023-07-20T05:33:32;9.57;;;6.30;;
4565;SDS011;2295;51.050;14.608;2023-07-20T05:36:00;6.20;;;5.57;;
4565;SDS011;2295;51.050;14.608;2023-07-20T05:38:28;7.53;;;6.20;;
4565;SDS011;2295;51.050;14.608;2023-07-20T05:40:59;14.70;;;7.93;;
4565;SDS011;2295;51.050;14.608;2023-07-20T05:43:28;8.53;;;5.47;;
4565;SDS011;2295;51.050;14.608;2023-07-20T05:45:57;8.50;;;5.70;;
4565;SDS011;2295;51.050;14.608;2023-07-20T05:48:25;8.47;;;4.83;;
4565;SDS011;2295;51.050;14.608;2023-07-20T05:50:55;10.63;;;5.83;;
4565;SDS011;2295;51.050;14.608;2023-07-20T05:53:23;9.47;;;4.87;;
4565;SDS011;2295;51.050;14.608;2023-07-20T05:55:52;7.43;;;6.00;;
4565;SDS011;2295;51.050;14.608;2023-07-20T05:58:20;10.93;;;5.60;;
4565;SDS011;2295;51.050;14.608;2023-07-20T06:00:49;9.63;;;5.00;;
4565;SDS011;2295;51.050;14.608;2023-07-20T06:03:18;6.63;;;5.10;;
4565;SDS011;2295;51.050;14.608;2023-07-20T06:05:47;28.70;;;10.80;;
4565;SDS011;2295;51.050;14.608;2023-07-20T06:08:17;9.10;;;4.90;;
4565;SDS011;2295;51.050;14.608;2023-07-20T06:10:49;6.13;;;4.20;;
4565;SDS011;2295;51.050;14.608;2023-07-20T06:13:18;7.50;;;3.57;;
4565;SDS011;2295;51.050;14.608;2023-07-20T06:15:47;5.10;;;3.40;;
4565;SDS011;2295;51.050;14.608;2023-07-20T06:18:15;4.43;;;3.53;;
4565;SDS011;2295;51.050;14.608;2023-07-20T06:20:48;5.10;;;3.00;;
4565;SDS011;2295;51.050;14.608;2023-07-20T06:23:18;4.57;;;3.20;;
4565;SDS011;2295;51.050;14.608;2023-07-20T06:25:47;3.40;;;3.10;;
4565;SDS011;2295;51.050;14.608;2023-07-20T06:28:15;6.80;;;2.70;;
4565;SDS011;2295;51.050;14.608;2023-07-20T06:30:44;3.77;;;2.70;;
4565;SDS011;2295;51.050;14.608;2023-07-20T06:33:12;3.93;;;3.23;;
4565;SDS011;2295;51.050;14.608;2023-07-20T06:35:41;5.63;;;3.90;;
4565;SDS011;2295;51.050;14.608;2023-07-20T06:38:10;3.43;;;3.23;;
4565;SDS011;2295;51.050;14.608;2023-07-20T06:40:42;4.83;;;4.40;;
4565;SDS011;2295;51.050;14.608;2023-07-20T06:43:12;6.27;;;4.47;;
4565;SDS011;2295;51.050;14.608;2023-07-20T06:45:44;8.17;;;5.60;;
4565;SDS011;2295;51.050;14.608;2023-07-20T06:48:18;6.63;;;5.37;;
4565;SDS011;2295;51.050;14.608;2023-07-20T06:50:46;6.00;;;5.40;;
4565;SDS011;2295;51.050;14.608;2023-07-20T06:53:15;10.17;;;5.83;;
4565;SDS011;2295;51.050;14.608;2023-07-20T06:55:45;9.63;;;6.13;;
4565;SDS011;2295;51.050;14.608;2023-07-20T06:58:18;8.03;;;6.70;;
4565;SDS011;2295;51.050;14.608;2023-07-20T07:00:48;7.87;;;6.60;;
4565;SDS011;2295;51.050;14.608;2023-07-20T07:03:16;7.43;;;6.63;;
4565;SDS011;2295;51.050;14.608;2023-07-20T07:05:44;9.40;;;8.07;;
4565;SDS011;2295;51.050;14.608;2023-07-20T07:08:16;12.30;;;6.30;;
4565;SDS011;2295;51.050;14.608;2023-07-20T07:10:46;8.60;;;6.90;;
4565;SDS011;2295;51.050;14.608;2023-07-20T07:13:14;10.23;;;6.30;;
4565;SDS011;2295;51.050;14.608;2023-07-20T07:15:43;7.20;;;6.07;;
4565;SDS011;2295;51.050;14.608;2023-07-20T07:18:12;6.87;;;6.13;;
4565;SDS011;2295;51.050;14.608;2023-07-20T07:20:40;7.17;;;5.47;;
4565;SDS011;2295;51.050;14.608;2023-07-20T07:23:08;7.47;;;4.83;;
4565;SDS011;2295;51.050;14.608;2023-07-20T07:25:36;9.03;;;5.57;;
4565;SDS011;2295;51.050;14.608;2023-07-20T07:28:06;6.63;;;4.23;;
4565;SDS011;2295;51.050;14.608;2023-07-20T07:30:34;6.07;;;5.50;;
4565;SDS011;2295;51.050;14.608;2023-07-20T07:33:03;7.17;;;5.50;;
4565;SDS011;2295;51.050;14.608;2023-07-20T07:35:31;10.60;;;6.30;;
4565;SDS011;2295;51.050;14.608;2023-07-20T07:37:59;8.07;;;6.07;;
4565;SDS011;2295;51.050;14.608;2023-07-20T07:40:48;7.67;;;6.90;;
4565;SDS011;2295;51.050;14.608;2023-07-20T07:43:17;27.10;;;11.13;;
4565;SDS011;2295;51.050;14.608;2023-07-20T07:45:46;13.60;;;7.67;;
4565;SDS011;2295;51.050;14.608;2023-07-20T07:48:14;14.53;;;8.10;;
4565;SDS011;2295;51.050;14.608;2023-07-20T07:50:43;9.80;;;6.97;;
4565;SDS011;2295;51.050;14.608;2023-07-20T07:53:11;13.40;;;6.17;;
4565;SDS011;2295;51.050;14.608;2023-07-20T07:55:40;7.77;;;6.50;;
4565;SDS011;2295;51.050;14.608;2023-07-20T07:58:11;10.07;;;5.27;;
4565;SDS011;2295;51.050;14.608;2023-07-20T08:00:43;7.00;;;4.93;;
4565;SDS011;2295;51.050;14.608;2023-07-20T08:03:11;6.00;;;3.83;;
4565;SDS011;2295;51.050;14.608;2023-07-20T08:05:40;9.33;;;4.20;;
4565;SDS011;2295;51.050;14.608;2023-07-20T08:08:08;4.67;;;4.27;;
4565;SDS011;2295;51.050;14.608;2023-07-20T08:10:36;6.33;;;4.40;;
4565;SDS011;2295;51.050;14.608;2023-07-20T08:13:05;5.27;;;4.77;;
4565;SDS011;2295;51.050;14.608;2023-07-20T08:15:33;5.03;;;4.63;;
4565;SDS011;2295;51.050;14.608;2023-07-20T08:18:03;8.53;;;5.53;;
4565;SDS011;2295;51.050;14.608;2023-07-20T08:20:31;6.43;;;5.17;;
4565;SDS011;2295;51.050;14.608;2023-07-20T08:23:02;8.20;;;5.53;;
4565;SDS011;2295;51.050;14.608;2023-07-20T08:25:30;8.87;;;5.83;;
4565;SDS011;2295;51.050;14.608;2023-07-20T08:27:58;9.03;;;6.93;;
4565;SDS011;2295;51.050;14.608;2023-07-20T08:30:27;6.23;;;5.37;;
4565;SDS011;2295;51.050;14.608;2023-07-20T08:33:09;12.07;;;5.83;;
4565;SDS011;2295;51.050;14.608;2023-07-20T08:35:37;8.23;;;7.03;;
4565;SDS011;2295;51.050;14.608;2023-07-20T08:38:06;10.30;;;6.50;;
4565;SDS011;2295;51.050;14.608;2023-07-20T08:40:38;7.20;;;5.70;;
4565;SDS011;2295;51.050;14.608;2023-07-20T08:43:08;7.60;;;5.30;;
4565;SDS011;2295;51.050;14.608;2023-07-20T08:45:38;9.77;;;4.90;;
4565;SDS011;2295;51.050;14.608;2023-07-20T08:48:09;9.90;;;5.10;;
4565;SDS011;2295;51.050;14.608;2023-07-20T08:50:39;4.57;;;4.17;;
4565;SDS011;2295;51.050;14.608;2023-07-20T08:53:09;4.37;;;3.77;;
4565;SDS011;2295;51.050;14.608;2023-07-20T08:55:40;4.93;;;4.40;;
4565;SDS011;2295;51.050;14.608;2023-07-20T08:58:12;5.10;;;4.60;;
4565;SDS011;2295;51.050;14.608;2023-07-20T09:00:41;5.10;;;4.10;;
4565;SDS011;2295;51.050;14.608;2023-07-20T09:03:14;5.93;;;4.73;;
4565;SDS011;2295;51.050;14.608;2023-07-20T09:05:42;9.10;;;5.33;;
4565;SDS011;2295;51.050;14.608;2023-07-20T09:08:12;5.00;;;4.17;;
4565;SDS011;2295;51.050;14.608;2023-07-20T09:10:40;4.90;;;4.50;;
4565;SDS011;2295;51.050;14.608;2023-07-20T09:13:09;7.90;;;4.97;;
4565;SDS011;2295;51.050;14.608;2023-07-20T09:15:45;5.40;;;4.40;;
4565;SDS011;2295;51.050;14.608;2023-07-20T09:18:24;5.67;;;5.10;;
4565;SDS011;2295;51.050;14.608;2023-07-20T09:20:53;8.50;;;4.77;;
4565;SDS011;2295;51.050;14.608;2023-07-20T09:23:29;8.77;;;5.60;;
4565;SDS011;2295;51.050;14.608;2023-07-20T09:25:59;5.77;;;4.27;;
4565;SDS011;2295;51.050;14.608;2023-07-20T09:28:27;8.93;;;5.50;;
4565;SDS011;2295;51.050;14.608;2023-07-20T09:30:56;17.97;;;6.90;;
4565;SDS011;2295;51.050;14.608;2023-07-20T09:33:26;14.53;;;6.67;;
4565;SDS011;2295;51.050;14.608;2023-07-20T09:35:55;9.03;;;5.90;;
4565;SDS011;2295;51.050;14.608;2023-07-20T09:38:50;10.87;;;6.27;;
4565;SDS011;2295;51.050;14.608;2023-07-20T09:41:21;8.23;;;6.03;;
4565;SDS011;2295;51.050;14.608;2023-07-20T09:43:52;9.83;;;6.37;;
4565;SDS011;2295;51.050;14.608;2023-07-20T09:46:21;10.10;;;5.10;;
4565;SDS011;2295;51.050;14.608;2023-07-20T09:48:57;8.77;;;5.43;;
4565;SDS011;2295;51.050;14.608;2023-07-20T09:51:28;12.40;;;6.43;;
4565;SDS011;2295;51.050;14.608;2023-07-20T09:53:57;16.73;;;7.23;;
4565;SDS011;2295;51.050;14.608;2023-07-20T09:56:25;10.10;;;7.10;;
4565;SDS011;2295;51.050;14.608;2023-07-20T09:58:56;10.27;;;7.70;;
4565;SDS011;2295;51.050;14.608;2023-07-20T10:01:24;10.07;;;7.50;;
4565;SDS011;2295;51.050;14.608;2023-07-20T10:03:58;5.80;;;5.13;;
4565;SDS011;2295;51.050;14.608;2023-07-20T10:06:29;6.17;;;4.50;;
4565;SDS011;2295;51.050;14.608;2023-07-20T10:09:00;5.10;;;4.47;;
4565;SDS011;2295;51.050;14.608;2023-07-20T10:11:30;5.63;;;3.60;;
4565;SDS011;2295;51.050;14.608;2023-07-20T10:14:03;3.40;;;3.10;;
4565;SDS011;2295;51.050;14.608;2023-07-20T10:16:35;3.43;;;2.80;;
4565;SDS011;2295;51.050;14.608;2023-07-20T10:19:10;2.97;;;2.40;;
4565;SDS011;2295;51.050;14.608;2023-07-20T10:21:46;2.90;;;2.50;;
4565;SDS011;2295;51.050;14.608;2023-07-20T10:24:24;6.57;;;2.50;;
4565;SDS011;2295;51.050;14.608;2023-07-20T10:26:55;2.70;;;2.50;;
4565;SDS011;2295;51.050;14.608;2023-07-20T10:29:23;7.67;;;2.80;;
4565;SDS011;2295;51.050;14.608;2023-07-20T10:31:55;3.23;;;3.00;;
4565;SDS011;2295;51.050;14.608;2023-07-20T10:34:26;4.57;;;2.80;;
4565;SDS011;2295;51.050;14.608;2023-07-20T10:36:55;4.23;;;3.67;;
4565;SDS011;2295;51.050;14.608;2023-07-20T10:39:23;7.20;;;2.90;;
4565;SDS011;2295;51.050;14.608;2023-07-20T10:42:00;2.50;;;2.30;;
4565;SDS011;2295;51.050;14.608;2023-07-20T10:44:33;2.47;;;2.37;;
4565;SDS011;2295;51.050;14.608;2023-07-20T10:47:08;5.03;;;2.33;;
4565;SDS011;2295;51.050;14.608;2023-07-20T10:52:32;2.80;;;2.30;;
4565;SDS011;2295;51.050;14.608;2023-07-20T10:55:10;2.50;;;2.30;;
4565;SDS011;2295;51.050;14.608;2023-07-20T10:57:39;2.90;;;2.23;;
4565;SDS011;2295;51.050;14.608;2023-07-20T11:00:08;2.50;;;2.00;;
4565;SDS011;2295;51.050;14.608;2023-07-20T11:02:42;3.73;;;1.63;;
4565;SDS011;2295;51.050;14.608;2023-07-20T11:08:05;2.10;;;2.00;;
4565;SDS011;2295;51.050;14.608;2023-07-20T11:10:36;3.80;;;1.97;;
4565;SDS011;2295;51.050;14.608;2023-07-20T11:13:20;1.50;;;1.40;;
4565;SDS011;2295;51.050;14.608;2023-07-20T11:16:02;2.30;;;1.77;;
4565;SDS011;2295;51.050;14.608;2023-07-20T11:18:35;2.40;;;2.27;;
4565;SDS011;2295;51.050;14.608;2023-07-20T11:21:08;6.83;;;3.30;;
4565;SDS011;2295;51.050;14.608;2023-07-20T11:23:38;3.90;;;3.57;;
4565;SDS011;2295;51.050;14.608;2023-07-20T11:26:07;6.37;;;4.40;;
4565;SDS011;2295;51.050;14.608;2023-07-20T11:28:36;4.20;;;3.60;;
4565;SDS011;2295;51.050;14.608;2023-07-20T11:31:04;3.57;;;3.17;;
4565;SDS011;2295;51.050;14.608;2023-07-20T11:33:33;10.33;;;3.73;;
4565;SDS011;2295;51.050;14.608;2023-07-20T11:36:01;7.47;;;3.47;;
4565;SDS011;2295;51.050;14.608;2023-07-20T11:38:51;5.47;;;3.90;;
4565;SDS011;2295;51.050;14.608;2023-07-20T11:41:19;6.07;;;4.37;;
4565;SDS011;2295;51.050;14.608;2023-07-20T11:43:48;7.03;;;4.80;;
4565;SDS011;2295;51.050;14.608;2023-07-20T11:46:16;4.67;;;4.20;;
4565;SDS011;2295;51.050;14.608;2023-07-20T11:48:45;4.83;;;4.47;;
4565;SDS011;2295;51.050;14.608;2023-07-20T11:51:13;4.77;;;2.53;;
4565;SDS011;2295;51.050;14.608;2023-07-20T11:53:42;2.30;;;2.00;;
4565;SDS011;2295;51.050;14.608;2023-07-20T11:56:13;2.00;;;1.90;;
4565;SDS011;2295;51.050;14.608;2023-07-20T11:58:42;2.00;;;1.57;;
4565;SDS011;2295;51.050;14.608;2023-07-20T12:01:11;2.07;;;1.60;;
4565;SDS011;2295;51.050;14.608;2023-07-20T12:03:41;1.87;;;1.43;;
4565;SDS011;2295;51.050;14.608;2023-07-20T12:06:10;2.70;;;1.50;;
4565;SDS011;2295;51.050;14.608;2023-07-20T12:08:41;1.50;;;1.40;;
4565;SDS011;2295;51.050;14.608;2023-07-20T12:11:10;2.90;;;1.30;;
4565;SDS011;2295;51.050;14.608;2023-07-20T12:13:41;2.80;;;1.67;;
4565;SDS011;2295;51.050;14.608;2023-07-20T12:16:11;1.40;;;1.30;;
4565;SDS011;2295;51.050;14.608;2023-07-20T12:18:40;1.37;;;1.10;;
4565;SDS011;2295;51.050;14.608;2023-07-20T12:21:09;2.13;;;1.00;;
4565;SDS011;2295;51.050;14.608;2023-07-20T12:23:38;1.10;;;1.00;;
4565;SDS011;2295;51.050;14.608;2023-07-20T12:26:08;1.00;;;0.90;;
4565;SDS011;2295;51.050;14.608;2023-07-20T12:28:41;2.17;;;1.20;;
4565;SDS011;2295;51.050;14.608;2023-07-20T12:31:09;2.27;;;0.80;;
4565;SDS011;2295;51.050;14.608;2023-07-20T12:33:40;1.00;;;0.90;;
4565;SDS011;2295;51.050;14.608;2023-07-20T12:36:08;2.40;;;0.97;;
4565;SDS011;2295;51.050;14.608;2023-07-20T12:38:37;1.30;;;0.90;;
4565;SDS011;2295;51.050;14.608;2023-07-20T12:41:09;0.90;;;0.90;;
4565;SDS011;2295;51.050;14.608;2023-07-20T12:43:39;1.30;;;1.00;;
4565;SDS011;2295;51.050;14.608;2023-07-20T12:46:09;1.10;;;1.00;;
4565;SDS011;2295;51.050;14.608;2023-07-20T12:48:39;1.07;;;1.03;;
4565;SDS011;2295;51.050;14.608;2023-07-20T12:51:11;2.33;;;1.23;;
4565;SDS011;2295;51.050;14.608;2023-07-20T12:53:40;3.17;;;1.63;;
4565;SDS011;2295;51.050;14.608;2023-07-20T12:56:08;3.47;;;1.53;;
4565;SDS011;2295;51.050;14.608;2023-07-20T12:58:39;1.70;;;1.60;;
4565;SDS011;2295;51.050;14.608;2023-07-20T13:01:09;2.20;;;1.47;;
4565;SDS011;2295;51.050;14.608;2023-07-20T13:03:40;1.60;;;1.50;;
4565;SDS011;2295;51.050;14.608;2023-07-20T13:06:11;3.00;;;1.20;;
4565;SDS011;2295;51.050;14.608;2023-07-20T13:08:42;3.00;;;1.57;;
4565;SDS011;2295;51.050;14.608;2023-07-20T13:11:10;1.33;;;1.23;;
4565;SDS011;2295;51.050;14.608;2023-07-20T13:13:39;3.43;;;1.27;;
4565;SDS011;2295;51.050;14.608;2023-07-20T13:16:08;2.20;;;1.10;;
4565;SDS011;2295;51.050;14.608;2023-07-20T13:18:37;1.20;;;1.20;;
4565;SDS011;2295;51.050;14.608;2023-07-20T13:21:05;1.00;;;1.00;;
4565;SDS011;2295;51.050;14.608;2023-07-20T13:23:38;1.30;;;1.20;;
4565;SDS011;2295;51.050;14.608;2023-07-20T13:26:06;1.63;;;1.27;;
4565;SDS011;2295;51.050;14.608;2023-07-20T13:28:34;1.70;;;1.60;;
4565;SDS011;2295;51.050;14.608;2023-07-20T13:31:03;5.27;;;1.90;;
4565;SDS011;2295;51.050;14.608;2023-07-20T13:33:33;2.40;;;1.93;;
4565;SDS011;2295;51.050;14.608;2023-07-20T13:36:05;2.10;;;2.00;;
4565;SDS011;2295;51.050;14.608;2023-07-20T13:38:35;1.80;;;1.70;;
4565;SDS011;2295;51.050;14.608;2023-07-20T13:41:03;1.90;;;1.80;;
4565;SDS011;2295;51.050;14.608;2023-07-20T13:43:31;3.27;;;1.77;;
4565;SDS011;2295;51.050;14.608;2023-07-20T13:46:00;1.90;;;1.80;;
4565;SDS011;2295;51.050;14.608;2023-07-20T13:48:28;2.00;;;1.80;;
4565;SDS011;2295;51.050;14.608;2023-07-20T13:50:59;3.03;;;2.40;;
4565;SDS011;2295;51.050;14.608;2023-07-20T13:53:27;3.67;;;1.80;;
4565;SDS011;2295;51.050;14.608;2023-07-20T13:55:59;4.63;;;1.87;;
4565;SDS011;2295;51.050;14.608;2023-07-20T13:58:30;3.97;;;2.07;;
4565;SDS011;2295;51.050;14.608;2023-07-20T14:00:58;3.27;;;2.30;;
4565;SDS011;2295;51.050;14.608;2023-07-20T14:03:27;2.80;;;1.90;;
4565;SDS011;2295;51.050;14.608;2023-07-20T14:06:00;2.80;;;2.60;;
4565;SDS011;2295;51.050;14.608;2023-07-20T14:08:31;9.63;;;2.37;;
4565;SDS011;2295;51.050;14.608;2023-07-20T14:10:59;2.63;;;2.43;;
4565;SDS011;2295;51.050;14.608;2023-07-20T14:13:30;2.90;;;2.13;;
4565;SDS011;2295;51.050;14.608;2023-07-20T14:16:12;6.63;;;2.40;;
4565;SDS011;2295;51.050;14.608;2023-07-20T14:18:41;4.70;;;2.80;;
4565;SDS011;2295;51.050;14.608;2023-07-20T14:21:10;2.90;;;2.17;;
4565;SDS011;2295;51.050;14.608;2023-07-20T14:23:39;2.70;;;1.77;;
4565;SDS011;2295;51.050;14.608;2023-07-20T14:26:07;4.10;;;2.20;;
4565;SDS011;2295;51.050;14.608;2023-07-20T14:28:38;7.03;;;2.20;;
4565;SDS011;2295;51.050;14.608;2023-07-20T14:31:06;2.80;;;1.93;;
4565;SDS011;2295;51.050;14.608;2023-07-20T14:33:34;2.07;;;1.97;;
4565;SDS011;2295;51.050;14.608;2023-07-20T14:36:03;2.20;;;2.07;;
4565;SDS011;2295;51.050;14.608;2023-07-20T14:38:33;2.53;;;2.33;;
4565;SDS011;2295;51.050;14.608;2023-07-20T14:41:08;3.80;;;2.10;;
4565;SDS011;2295;51.050;14.608;2023-07-20T14:43:36;5.80;;;2.47;;
4565;SDS011;2295;51.050;14.608;2023-07-20T14:46:05;3.20;;;2.03;;
4565;SDS011;2295;51.050;14.608;2023-07-20T14:48:33;3.00;;;2.07;;
4565;SDS011;2295;51.050;14.608;2023-07-20T14:51:01;2.07;;;1.97;;
4565;SDS011;2295;51.050;14.608;2023-07-20T14:53:32;2.23;;;2.10;;
4565;SDS011;2295;51.050;14.608;2023-07-20T14:56:02;2.00;;;1.90;;
4565;SDS011;2295;51.050;14.608;2023-07-20T14:58:31;2.90;;;1.63;;
4565;SDS011;2295;51.050;14.608;2023-07-20T15:01:01;1.93;;;1.83;;
4565;SDS011;2295;51.050;14.608;2023-07-20T15:03:32;2.23;;;1.87;;
4565;SDS011;2295;51.050;14.608;2023-07-20T15:06:03;1.90;;;1.67;;
4565;SDS011;2295;51.050;14.608;2023-07-20T15:08:33;3.47;;;1.50;;
4565;SDS011;2295;51.050;14.608;2023-07-20T15:11:04;2.13;;;1.80;;
4565;SDS011;2295;51.050;14.608;2023-07-20T15:13:32;1.60;;;1.50;;
4565;SDS011;2295;51.050;14.608;2023-07-20T15:16:00;2.80;;;1.70;;
4565;SDS011;2295;51.050;14.608;2023-07-20T15:18:29;1.93;;;1.83;;